createdAt,value
2022-10-19T00:01:21.877Z,6.90
2022-10-19T00:03:54.898Z,6.90
2022-10-19T00:06:29.911Z,6.90
2022-10-19T00:09:07.764Z,6.80
2022-10-19T00:11:38.942Z,6.80
2022-10-19T00:14:08.017Z,6.80
2022-10-19T00:16:38.781Z,6.90
2022-10-19T00:19:12.144Z,6.80
2022-10-19T00:21:40.001Z,6.80
2022-10-19T00:24:08.958Z,6.80
2022-10-19T00:26:36.616Z,6.70
2022-10-19T00:29:05.186Z,6.70
2022-10-19T00:31:32.705Z,6.70
2022-10-19T00:34:01.011Z,6.70
2022-10-19T00:36:32.803Z,6.60
2022-10-19T00:39:00.710Z,6.50
2022-10-19T00:41:31.653Z,6.70
2022-10-19T00:44:05.211Z,6.60
2022-10-19T00:46:36.950Z,6.60
2022-10-19T00:49:22.522Z,6.50
2022-10-19T00:51:55.894Z,6.50
2022-10-19T00:54:25.516Z,6.50
2022-10-19T00:56:56.585Z,6.50
2022-10-19T00:59:26.783Z,6.50
2022-10-19T01:01:55.437Z,6.40
2022-10-19T01:04:26.217Z,6.50
2022-10-19T01:06:55.091Z,6.60
2022-10-19T01:09:22.456Z,6.60
2022-10-19T01:12:11.004Z,6.60
2022-10-19T01:15:06.842Z,6.50
2022-10-19T01:17:54.860Z,6.50
2022-10-19T01:20:46.350Z,6.40
2022-10-19T01:23:43.998Z,6.50
2022-10-19T01:26:16.939Z,6.40
2022-10-19T01:29:22.581Z,6.40
2022-10-19T01:31:59.105Z,6.30
2022-10-19T01:34:34.077Z,6.20
2022-10-19T01:37:24.727Z,6.10
2022-10-19T01:40:07.126Z,6.10
2022-10-19T01:45:39.403Z,6.20
2022-10-19T01:48:22.401Z,6.10
2022-10-19T01:51:06.153Z,6.10
2022-10-19T01:53:41.626Z,6.10
2022-10-19T01:56:11.411Z,6.00
2022-10-19T01:58:42.788Z,6.10
2022-10-19T02:01:16.944Z,6.00
2022-10-19T02:03:44.272Z,6.00
2022-10-19T02:06:14.301Z,6.00
2022-10-19T02:08:48.146Z,6.00
2022-10-19T02:11:17.122Z,5.90
2022-10-19T02:13:48.347Z,5.90
2022-10-19T02:16:33.399Z,5.90
2022-10-19T02:19:03.143Z,5.80
2022-10-19T02:21:31.853Z,5.80
2022-10-19T02:23:58.964Z,5.90
2022-10-19T02:26:26.902Z,5.90
2022-10-19T02:28:56.775Z,5.90
2022-10-19T02:31:25.633Z,6.10
2022-10-19T02:33:53.930Z,6.10
2022-10-19T02:36:21.469Z,6.10
2022-10-19T02:38:48.890Z,6.00
2022-10-19T02:41:28.789Z,6.00
2022-10-19T02:44:04.666Z,5.90
2022-10-19T02:47:13.096Z,5.90
2022-10-19T02:49:42.468Z,5.90
2022-10-19T02:52:11.830Z,6.00
2022-10-19T02:54:41.430Z,5.90
2022-10-19T02:57:21.620Z,5.80
2022-10-19T02:59:49.691Z,5.80
2022-10-19T03:02:18.413Z,5.80
2022-10-19T03:07:21.700Z,5.70
2022-10-19T03:09:49.068Z,5.80
2022-10-19T03:12:16.546Z,5.70
2022-10-19T03:14:43.935Z,5.70
2022-10-19T03:17:11.669Z,5.70
2022-10-19T03:19:40.068Z,5.70
2022-10-19T03:22:07.409Z,5.70
2022-10-19T03:24:34.535Z,5.70
2022-10-19T03:27:02.181Z,5.70
2022-10-19T03:29:29.255Z,5.70
2022-10-19T03:31:56.377Z,5.70
2022-10-19T03:34:23.579Z,5.70
2022-10-19T03:36:50.902Z,5.60
2022-10-19T03:39:18.374Z,5.60
2022-10-19T03:41:45.816Z,5.60
2022-10-19T03:44:12.938Z,5.60
2022-10-19T03:46:40.664Z,5.60
2022-10-19T03:49:08.671Z,5.60
2022-10-19T03:51:36.399Z,5.60
2022-10-19T03:54:12.316Z,5.50
2022-10-19T03:56:39.449Z,5.50
2022-10-19T03:59:07.981Z,5.50
2022-10-19T04:01:40.315Z,5.50
2022-10-19T04:04:15.677Z,5.40
2022-10-19T04:06:46.148Z,5.60
2022-10-19T04:09:17.890Z,5.60
2022-10-19T04:11:45.661Z,5.50
2022-10-19T04:14:22.988Z,5.50
2022-10-19T04:17:04.228Z,5.50
2022-10-19T04:19:32.802Z,5.30
2022-10-19T04:21:59.903Z,5.30
2022-10-19T04:24:27.531Z,5.20
2022-10-19T04:26:56.182Z,5.30
2022-10-19T04:29:29.594Z,5.20
2022-10-19T04:31:57.594Z,5.20
2022-10-19T04:34:24.805Z,5.20
2022-10-19T04:36:53.620Z,5.30
2022-10-19T04:39:20.865Z,5.10
2022-10-19T04:41:48.007Z,5.20
2022-10-19T04:44:15.188Z,5.30
2022-10-19T04:46:42.373Z,5.20
2022-10-19T04:49:09.490Z,5.20
2022-10-19T04:51:36.581Z,5.10
2022-10-19T04:54:04.811Z,5.20
2022-10-19T04:56:32.645Z,5.20
2022-10-19T04:59:00.736Z,5.10
2022-10-19T05:01:30.773Z,5.20
2022-10-19T05:04:00.946Z,5.20
2022-10-19T05:06:30.044Z,5.20
2022-10-19T05:08:58.216Z,5.20
2022-10-19T05:11:25.870Z,5.20
2022-10-19T05:13:52.969Z,5.20
2022-10-19T05:16:23.587Z,5.10
2022-10-19T05:18:53.929Z,5.10
2022-10-19T05:21:21.057Z,5.10
2022-10-19T05:23:52.134Z,5.00
2022-10-19T05:26:22.326Z,5.00
2022-10-19T05:28:59.708Z,5.00
2022-10-19T05:31:30.298Z,5.10
2022-10-19T05:33:58.377Z,5.00
2022-10-19T05:36:32.456Z,5.00
2022-10-19T05:39:05.458Z,5.00
2022-10-19T05:41:33.588Z,5.00
2022-10-19T05:44:02.932Z,5.00
2022-10-19T05:46:32.574Z,5.00
2022-10-19T05:49:00.554Z,5.10
2022-10-19T05:51:28.909Z,5.20
2022-10-19T05:53:57.228Z,5.20
2022-10-19T05:56:30.279Z,5.10
2022-10-19T05:59:00.615Z,5.00
2022-10-19T06:01:30.032Z,5.00
2022-10-19T06:03:59.612Z,4.90
2022-10-19T06:06:28.168Z,5.00
2022-10-19T06:08:57.137Z,5.00
2022-10-19T06:11:28.778Z,4.90
2022-10-19T06:13:59.473Z,4.90
2022-10-19T06:16:29.186Z,4.90
2022-10-19T06:18:57.539Z,5.00
2022-10-19T06:21:28.979Z,4.90
2022-10-19T06:24:02.617Z,5.00
2022-10-19T06:26:32.384Z,5.00
2022-10-19T06:29:01.919Z,4.90
2022-10-19T06:31:32.031Z,4.90
2022-10-19T06:33:59.360Z,4.90
2022-10-19T06:36:30.686Z,5.00
2022-10-19T06:38:58.441Z,5.00
2022-10-19T06:41:25.965Z,5.20
2022-10-19T06:43:55.445Z,5.20
2022-10-19T06:46:25.669Z,5.30
2022-10-19T06:49:02.204Z,5.40
2022-10-19T06:51:32.078Z,5.40
2022-10-19T06:53:59.160Z,5.50
2022-10-19T06:56:27.225Z,5.60
2022-10-19T06:58:55.158Z,6.10
2022-10-19T07:01:23.191Z,5.80
2022-10-19T07:03:52.775Z,5.90
2022-10-19T07:06:21.298Z,6.00
2022-10-19T07:08:49.367Z,6.10
2022-10-19T07:11:20.148Z,6.20
2022-10-19T07:13:47.266Z,6.30
2022-10-19T07:16:21.101Z,6.50
2022-10-19T07:18:52.086Z,6.60
2022-10-19T07:21:22.136Z,6.60
2022-10-19T07:23:49.354Z,6.70
2022-10-19T07:26:23.585Z,6.90
2022-10-19T07:28:51.697Z,7.00
2022-10-19T07:31:22.884Z,7.10
2022-10-19T07:33:59.769Z,7.20
2022-10-19T07:36:29.641Z,7.20
2022-10-19T07:38:57.359Z,7.40
2022-10-19T07:41:26.186Z,7.50
2022-10-19T07:43:54.846Z,7.60
2022-10-19T07:46:26.460Z,7.70
2022-10-19T07:48:54.179Z,7.80
2022-10-19T07:51:23.099Z,7.80
2022-10-19T07:53:50.882Z,7.90
2022-10-19T07:56:25.580Z,8.00
2022-10-19T07:58:56.350Z,8.10
2022-10-19T08:01:30.421Z,8.30
2022-10-19T08:09:40.064Z,8.60
2022-10-19T08:12:05.806Z,8.70
2022-10-19T08:14:33.490Z,8.80
2022-10-19T08:17:01.451Z,8.90
2022-10-19T08:19:28.667Z,9.00
2022-10-19T08:21:55.858Z,9.10
2022-10-19T08:24:23.027Z,9.10
2022-10-19T08:26:50.172Z,9.20
2022-10-19T08:29:21.810Z,9.30
2022-10-19T08:31:49.665Z,9.30
2022-10-19T08:34:17.384Z,9.40
2022-10-19T08:36:44.940Z,9.50
2022-10-19T08:39:12.959Z,9.60
2022-10-19T08:42:05.425Z,9.70
2022-10-19T08:45:09.061Z,9.80
2022-10-19T08:48:19.351Z,10.00
2022-10-19T08:50:48.029Z,10.00
2022-10-19T08:53:51.552Z,10.10
2022-10-19T08:56:55.829Z,10.20
2022-10-19T08:59:39.106Z,10.30
2022-10-19T09:02:36.658Z,10.30
2022-10-19T09:05:31.536Z,10.40
2022-10-19T09:08:00.084Z,10.50
2022-10-19T09:10:38.916Z,10.50
2022-10-19T09:13:23.095Z,10.60
2022-10-19T09:15:53.146Z,10.70
2022-10-19T09:18:27.685Z,10.70
2022-10-19T09:21:30.919Z,10.80
2022-10-19T09:24:11.124Z,10.90
2022-10-19T09:26:52.580Z,11.00
2022-10-19T09:29:57.462Z,11.00
2022-10-19T09:32:35.403Z,11.20
2022-10-19T09:35:43.155Z,11.30
2022-10-19T09:38:15.025Z,11.40
2022-10-19T09:40:42.473Z,11.60
2022-10-19T09:43:11.608Z,11.60
2022-10-19T09:46:10.558Z,11.60
2022-10-19T09:48:52.153Z,11.70
2022-10-19T09:51:21.470Z,11.90
2022-10-19T09:53:53.997Z,12.00
2022-10-19T09:58:55.721Z,12.20
2022-10-19T10:01:43.138Z,12.20
2022-10-19T10:04:17.258Z,12.20
2022-10-19T10:06:48.318Z,12.20
2022-10-19T10:09:26.925Z,12.20
2022-10-19T10:11:58.406Z,12.30
2022-10-19T10:14:36.494Z,12.40
2022-10-19T10:17:19.224Z,12.50
2022-10-19T10:20:27.419Z,12.60
2022-10-19T10:23:01.266Z,12.70
2022-10-19T10:25:36.826Z,12.80
2022-10-19T10:28:24.258Z,12.90
2022-10-19T10:31:08.978Z,12.90
2022-10-19T10:33:44.605Z,13.00
2022-10-19T10:36:13.451Z,13.10
2022-10-19T10:38:59.132Z,13.20
2022-10-19T10:41:29.434Z,13.40
2022-10-19T10:44:06.060Z,13.40
2022-10-19T10:46:51.253Z,13.50
2022-10-19T10:49:40.653Z,13.60
2022-10-19T10:52:15.975Z,13.80
2022-10-19T10:55:03.848Z,14.00
2022-10-19T10:57:45.418Z,14.10
2022-10-19T11:00:16.786Z,14.20
2022-10-19T11:03:19.479Z,14.40
2022-10-19T11:05:55.571Z,14.90
2022-10-19T11:08:34.268Z,16.00
2022-10-19T11:11:34.329Z,17.50
2022-10-19T11:14:20.276Z,18.90
2022-10-19T11:16:50.906Z,20.30
2022-10-19T11:19:29.535Z,21.30
2022-10-19T11:22:22.352Z,22.10
2022-10-19T11:25:30.851Z,22.60
2022-10-19T11:28:50.472Z,23.40
2022-10-19T11:31:52.955Z,24.10
2022-10-19T11:34:44.928Z,24.60
2022-10-19T11:38:29.571Z,24.80
2022-10-19T11:41:30.041Z,23.80
2022-10-19T11:44:43.805Z,25.40
2022-10-19T11:47:29.159Z,25.40
2022-10-19T11:50:54.275Z,25.30
2022-10-19T11:53:49.130Z,25.60
2022-10-19T11:57:01.772Z,25.20
2022-10-19T12:00:15.087Z,25.10
2022-10-19T12:03:12.385Z,25.10
2022-10-19T12:06:24.956Z,25.00
2022-10-19T12:09:33.190Z,24.90
2022-10-19T12:12:25.141Z,24.90
2022-10-19T12:15:11.898Z,24.70
2022-10-19T12:17:46.562Z,24.80
2022-10-19T12:20:43.656Z,24.60
2022-10-19T12:23:34.321Z,24.70
2022-10-19T12:26:10.243Z,24.90
2022-10-19T12:28:42.970Z,25.00
2022-10-19T12:31:18.529Z,25.10
2022-10-19T12:34:36.836Z,25.20
2022-10-19T12:37:40.433Z,25.40
2022-10-19T12:40:27.071Z,25.50
2022-10-19T12:43:17.342Z,25.40
2022-10-19T12:46:04.723Z,25.30
2022-10-19T12:48:31.903Z,24.90
2022-10-19T12:51:09.942Z,24.80
2022-10-19T12:53:42.237Z,24.60
2022-10-19T12:56:16.058Z,24.40
2022-10-19T12:58:51.581Z,23.90
2022-10-19T13:01:28.713Z,23.50
2022-10-19T13:04:14.242Z,23.40
2022-10-19T13:06:47.985Z,23.10
2022-10-19T13:09:41.657Z,22.70
2022-10-19T13:12:17.951Z,22.50
2022-10-19T13:15:01.781Z,22.40
2022-10-19T13:17:35.105Z,22.40
2022-10-19T13:20:14.755Z,22.20
2022-10-19T13:22:50.446Z,22.10
2022-10-19T13:25:17.567Z,22.00
2022-10-19T13:27:49.459Z,22.00
2022-10-19T13:30:38.441Z,21.90
2022-10-19T13:33:26.814Z,21.80
2022-10-19T13:35:59.737Z,21.80
2022-10-19T13:38:48.292Z,21.60
2022-10-19T13:41:45.778Z,21.50
2022-10-19T13:44:18.306Z,21.40
2022-10-19T13:47:26.894Z,21.20
2022-10-19T13:50:21.753Z,21.40
2022-10-19T13:53:47.896Z,21.40
2022-10-19T13:56:39.742Z,21.50
2022-10-19T13:59:33.673Z,21.40
2022-10-19T14:03:05.402Z,21.20
2022-10-19T14:06:05.877Z,21.40
2022-10-19T14:08:44.860Z,21.40
2022-10-19T14:11:18.857Z,21.20
2022-10-19T14:14:06.491Z,21.40
2022-10-19T14:16:33.763Z,21.40
2022-10-19T14:21:35.055Z,20.80
2022-10-19T14:24:02.734Z,20.20
2022-10-19T14:26:31.028Z,19.20
2022-10-19T14:29:00.379Z,18.70
2022-10-19T14:31:37.054Z,18.40
2022-10-19T14:34:09.306Z,18.00
2022-10-19T14:36:46.769Z,17.60
2022-10-19T14:39:30.375Z,17.40
2022-10-19T14:41:59.417Z,17.00
2022-10-19T14:44:42.767Z,16.70
2022-10-19T14:47:25.446Z,16.30
2022-10-19T14:49:53.242Z,16.10
2022-10-19T14:52:41.246Z,16.00
2022-10-19T14:55:18.189Z,15.90
2022-10-19T14:57:51.143Z,15.60
2022-10-19T15:03:08.146Z,15.30
2022-10-19T15:05:45.895Z,15.40
2022-10-19T15:08:32.695Z,15.20
2022-10-19T15:11:00.148Z,15.00
2022-10-19T15:13:35.843Z,14.90
2022-10-19T15:16:03.141Z,14.90
2022-10-19T15:18:55.103Z,14.60
2022-10-19T15:21:22.523Z,14.70
2022-10-19T15:23:52.194Z,14.40
2022-10-19T15:26:25.419Z,14.40
2022-10-19T15:28:55.157Z,14.30
2022-10-19T15:31:28.262Z,14.20
2022-10-19T15:34:00.446Z,14.20
2022-10-19T15:36:32.416Z,14.10
2022-10-19T15:39:24.968Z,14.00
2022-10-19T15:41:52.641Z,13.90
2022-10-19T15:44:49.229Z,13.90
2022-10-19T15:47:16.861Z,13.70
2022-10-19T15:49:45.994Z,13.50
2022-10-19T15:52:18.521Z,13.40
2022-10-19T15:54:57.726Z,13.60
2022-10-19T15:57:37.124Z,13.60
2022-10-19T16:00:17.716Z,13.50
2022-10-19T16:02:44.881Z,13.20
2022-10-19T16:07:41.474Z,12.90
2022-10-19T16:10:18.719Z,13.00
2022-10-19T16:12:46.048Z,12.80
2022-10-19T16:15:15.852Z,12.80
2022-10-19T16:18:01.409Z,12.70
2022-10-19T16:20:30.393Z,12.60
2022-10-19T16:22:58.484Z,12.50
2022-10-19T16:25:25.838Z,12.40
2022-10-19T16:27:52.899Z,12.40
2022-10-19T16:30:20.120Z,12.40
2022-10-19T16:32:50.326Z,12.20
2022-10-19T16:35:17.963Z,12.10
2022-10-19T16:37:45.120Z,12.10
2022-10-19T16:40:12.456Z,12.00
2022-10-19T16:42:39.543Z,11.90
2022-10-19T16:45:07.485Z,11.80
2022-10-19T16:47:34.707Z,11.80
2022-10-19T16:50:04.717Z,11.70
2022-10-19T16:52:32.420Z,11.60
2022-10-19T16:55:00.368Z,11.50
2022-10-19T16:57:27.644Z,11.40
2022-10-19T16:59:55.267Z,11.30
2022-10-19T17:02:22.750Z,11.20
2022-10-19T17:04:49.971Z,11.10
2022-10-19T17:07:17.641Z,11.10
2022-10-19T17:09:44.911Z,10.90
2022-10-19T17:12:13.070Z,10.90
2022-10-19T17:14:42.335Z,10.80
2022-10-19T17:17:11.069Z,10.80
2022-10-19T17:19:38.620Z,10.70
2022-10-19T17:22:06.127Z,10.70
2022-10-19T17:24:33.607Z,10.70
2022-10-19T17:27:02.392Z,10.60
2022-10-19T17:29:29.998Z,10.50
2022-10-19T17:31:58.160Z,10.40
2022-10-19T17:34:25.690Z,10.30
2022-10-19T17:36:52.826Z,10.30
2022-10-19T17:39:27.239Z,10.20
2022-10-19T17:41:58.447Z,10.10
2022-10-19T17:44:25.560Z,10.10
2022-10-19T17:46:52.876Z,10.00
2022-10-19T17:49:20.865Z,9.90
2022-10-19T17:51:47.942Z,10.00
2022-10-19T17:54:15.515Z,10.00
2022-10-19T17:56:43.323Z,10.00
2022-10-19T17:59:10.579Z,9.90
2022-10-19T18:01:37.927Z,9.80
2022-10-19T18:04:06.308Z,9.80
2022-10-19T18:06:36.711Z,9.80
2022-10-19T18:09:07.722Z,9.80
2022-10-19T18:11:42.351Z,9.80
2022-10-19T18:14:11.560Z,9.80
2022-10-19T18:16:46.112Z,9.80
2022-10-19T18:19:16.185Z,9.80
2022-10-19T18:21:47.145Z,9.90
2022-10-19T18:24:17.949Z,9.90
2022-10-19T18:26:45.842Z,10.00
2022-10-19T18:29:20.862Z,9.80
2022-10-19T18:31:48.951Z,9.60
2022-10-19T18:34:16.317Z,9.60
2022-10-19T18:36:44.148Z,9.60
2022-10-19T18:39:14.012Z,9.50
2022-10-19T18:41:42.066Z,9.40
2022-10-19T18:44:13.478Z,9.40
2022-10-19T18:46:41.587Z,9.30
2022-10-19T18:49:11.093Z,9.30
2022-10-19T18:51:38.588Z,9.20
2022-10-19T18:54:05.998Z,9.10
2022-10-19T18:56:33.216Z,9.10
2022-10-19T18:59:00.578Z,9.10
2022-10-19T19:01:29.382Z,9.10
2022-10-19T19:04:07.193Z,9.00
2022-10-19T19:06:36.474Z,8.90
2022-10-19T19:09:08.761Z,8.90
2022-10-19T19:11:38.397Z,8.90
2022-10-19T19:14:14.804Z,8.80
2022-10-19T19:16:44.169Z,8.80
2022-10-19T19:19:15.291Z,8.80
2022-10-19T19:21:44.235Z,8.80
2022-10-19T19:24:20.153Z,8.80
2022-10-19T19:26:52.116Z,8.90
2022-10-19T19:29:21.270Z,8.90
2022-10-19T19:34:16.670Z,8.70
2022-10-19T19:36:44.266Z,8.70
2022-10-19T19:39:11.408Z,8.70
2022-10-19T19:41:38.896Z,8.70
2022-10-19T19:44:06.081Z,8.70
2022-10-19T19:46:33.335Z,8.60
2022-10-19T19:49:02.879Z,8.50
2022-10-19T19:51:32.213Z,8.50
2022-10-19T19:53:59.944Z,8.60
2022-10-19T19:56:27.989Z,8.60
2022-10-19T19:58:58.517Z,8.60
2022-10-19T20:01:26.321Z,8.60
2022-10-19T20:03:53.691Z,8.50
2022-10-19T20:06:24.978Z,8.40
2022-10-19T20:08:55.047Z,8.50
2022-10-19T20:11:24.283Z,8.40
2022-10-19T20:13:51.849Z,8.40
2022-10-19T20:16:26.718Z,8.30
2022-10-19T20:19:11.049Z,8.30
2022-10-19T20:21:39.132Z,8.30
2022-10-19T20:24:07.028Z,8.30
2022-10-19T20:26:34.623Z,8.20
2022-10-19T20:29:04.010Z,8.20
2022-10-19T20:31:31.833Z,8.20
2022-10-19T20:33:59.014Z,8.20
2022-10-19T20:36:26.671Z,8.20
2022-10-19T20:38:57.632Z,8.20
2022-10-19T20:41:28.470Z,8.20
2022-10-19T20:43:56.885Z,8.20
2022-10-19T20:46:29.491Z,8.00
2022-10-19T20:48:59.796Z,8.00
2022-10-19T20:51:34.353Z,8.10
2022-10-19T20:54:04.704Z,7.90
2022-10-19T20:56:36.549Z,7.90
2022-10-19T20:59:08.568Z,8.00
2022-10-19T21:01:38.700Z,7.90
2022-10-19T21:04:09.239Z,7.90
2022-10-19T21:06:41.523Z,7.90
2022-10-19T21:09:10.639Z,7.90
2022-10-19T21:11:41.280Z,7.90
2022-10-19T21:14:17.052Z,7.90
2022-10-19T21:16:44.481Z,7.80
2022-10-19T21:19:18.595Z,7.80
2022-10-19T21:21:52.746Z,7.70
2022-10-19T21:24:24.355Z,7.70
2022-10-19T21:29:23.756Z,7.80
2022-10-19T21:31:53.902Z,7.80
2022-10-19T21:34:25.231Z,7.80
2022-10-19T21:36:53.988Z,7.80
2022-10-19T21:39:21.930Z,8.00
2022-10-19T21:41:50.067Z,8.10
2022-10-19T21:44:18.711Z,8.00
2022-10-19T21:46:48.130Z,7.90
2022-10-19T21:49:15.358Z,7.90
2022-10-19T21:51:49.614Z,7.80
2022-10-19T21:54:23.500Z,7.80
2022-10-19T21:56:51.183Z,7.70
2022-10-19T21:59:18.856Z,7.60
2022-10-19T22:01:46.022Z,7.60
2022-10-19T22:04:16.870Z,7.60
2022-10-19T22:06:44.911Z,7.50
2022-10-19T22:09:17.503Z,7.40
2022-10-19T22:11:45.768Z,7.40
2022-10-19T22:14:16.140Z,7.30
2022-10-19T22:16:44.225Z,7.40
2022-10-19T22:19:12.322Z,7.30
2022-10-19T22:26:46.430Z,7.30
2022-10-19T22:34:14.239Z,7.00
2022-10-19T22:36:42.570Z,7.00
2022-10-19T22:39:10.376Z,7.00
2022-10-19T22:42:33.792Z,6.90
2022-10-19T22:49:02.156Z,6.80
2022-10-19T22:52:25.492Z,7.00
2022-10-19T22:54:52.688Z,6.90
2022-10-19T22:57:19.795Z,6.90
2022-10-19T22:59:46.932Z,6.80
2022-10-19T23:02:14.059Z,6.90
2022-10-19T23:04:41.169Z,7.00
2022-10-19T23:07:08.313Z,6.90
2022-10-19T23:09:35.518Z,6.90
2022-10-19T23:12:02.649Z,6.90
2022-10-19T23:14:29.723Z,7.00
2022-10-19T23:16:56.849Z,7.10
2022-10-19T23:19:23.959Z,7.20
2022-10-19T23:21:51.080Z,7.10
2022-10-19T23:24:18.665Z,7.10
2022-10-19T23:26:45.781Z,7.10
2022-10-19T23:29:12.951Z,7.00
2022-10-19T23:31:40.105Z,7.00
2022-10-19T23:34:07.476Z,7.00
2022-10-19T23:36:34.542Z,7.10
2022-10-19T23:39:01.694Z,7.00
2022-10-19T23:41:28.787Z,7.10
2022-10-19T23:43:56.050Z,7.00
2022-10-19T23:46:23.141Z,8.10
2022-10-19T23:48:50.274Z,6.80
2022-10-19T23:51:21.028Z,6.70
2022-10-19T23:53:51.436Z,6.70
2022-10-19T23:56:29.773Z,6.70
2022-10-19T23:58:57.510Z,6.70
